Aviation Digital Data Service (ADDS)

Output produced by METARs form (2057 UTC 29 May 2017)
found at http://www.aviationweather.gov/adds/metars/
 
WBGB 292000Z 14002KT 9999 FEW004 SCT016 BKN150 24/24 Q1010
TAF WBGB 291700Z 2918/3018 10005KT 9999 FEW016 SCT150 BKN300 
     TEMPO 2918/2922 5000 RA FEW016 BKN150 
     TEMPO 3007/3011 4000 TSRA FEW015CB SCT016 BKN150
       
WMKB 292000Z 16004KT 6000 TS FEW017CB SCT140 BKN270 28/25 Q1007 NOSIG
TAF WMKB 291700Z 2918/3018 04005KT 7000 FEW025 SCT140 BKN270
       
WMKE 292000Z AUTO VRB02KT //// // 24/24 Q1008
TAF WMKE 291700Z 2918/3018 14005KT 9999 FEW017CB SCT020 BKN250 
     PROB30 
     TEMPO 2918/2922 5000 TSRA FEW015CB SCT018
       
TAF WMAP 291700Z 2918/3018 18005KT 9999 FEW017CB SCT140 BKN260 
     PROB30 
     TEMPO 2918/2922 5000 FEW015CB SCT018 
     TEMPO 3007/3011 4000 TSRA FEW015CB SCT018 BKN150
       
WBKK 292030Z 12004KT 9999 FEW014 SCT140 BKN270 26/24 Q1008 NOSIG
TAF WBKK 291700Z 2918/3018 12005KT 9999 FEW014
       
WMKK 292030Z VRB01KT 9999 FEW030 BKN280 26/24 Q1008 NOSIG
TAF WMKK 291700Z 2918/3100 13005KT 9999 FEW017CB SCT140 BKN280 
     PROB30 
     TEMPO 2919/2923 5000 TSRA FEW015CB SCT018 
     TEMPO 3007/3011 4000 TSRA FEW015CB SCT018 BKN150
       
WMKD 292000Z 15005KT 6000 -RA FEW000 SCT024 BKN280 25/25 Q1009 NOSIG
WBGG 292030Z 11003KT 9999 -RA SCT020 BKN150 25/25 Q1010 NOSIG
TAF WBGG 291700Z 2918/3018 17007KT 9999 FEW020 SCT150 BKN300 
     TEMPO 3008/3012 4000 TSRA FEW015CB SCT020 BKN150
       
WBKL 292000Z 25001KT 9999 FEW012 SCT140 BKN290 26/26 Q1009
TAF WBKL 291700Z 2918/3018 17005KT 9999 FEW015 
     TEMPO 2920/2924 4000 RA FEW014 FEW016CB SCT040
       
WMKL 292000Z 00000KT 9999 FEW025 SCT140 BKN280 28/27 Q1007
TAF WMKL 291700Z 2918/3018 07005KT 9999 FEW018 SCT140 BKN270 
     PROB30 
     TEMPO 2920/2924 4000 TSRA FEW015CB SCT018 BKN150
       
WMKM 292000Z 13004KT 080V240 9999 FEW017CB BKN140 26/23 Q1009
TAF WMKM 291700Z 2918/3018 09005KT 9000 FEW017CB SCT140 BKN270 
     PROB30 
     TEMPO 2918/2922 5000 FEW015CB SCT018 
     TEMPO 3008/3012 4000 TSRA FEW015CB SCT018 BKN150
       
WBGR 292000Z 20003KT 9999 FEW002 SCT014 BKN150 25/24 Q1009
TAF WBGR 291700Z 2918/3018 14006KT 9999 FEW016 SCT150 BKN300 
     TEMPO 2918/2922 5000 RA FEW014 BKN150 
     TEMPO 3006/3010 4000 TSRA FEW015CB SCT016 BKN150
       
WBGB 292000Z 14002KT 9999 FEW004 SCT016 BKN150 24/24 Q1010
TAF WBGB 291700Z 2918/3018 10005KT 9999 FEW016 SCT150 BKN300 
     TEMPO 2918/2922 5000 RA FEW016 BKN150 
     TEMPO 3007/3011 4000 TSRA FEW015CB SCT016 BKN150
       
WBGG 292030Z 11003KT 9999 -RA SCT020 BKN150 25/25 Q1010 NOSIG
TAF WBGG 291700Z 2918/3018 17007KT 9999 FEW020 SCT150 BKN300 
     TEMPO 3008/3012 4000 TSRA FEW015CB SCT020 BKN150
       
WBGR 292000Z 20003KT 9999 FEW002 SCT014 BKN150 25/24 Q1009
TAF WBGR 291700Z 2918/3018 14006KT 9999 FEW016 SCT150 BKN300 
     TEMPO 2918/2922 5000 RA FEW014 BKN150 
     TEMPO 3006/3010 4000 TSRA FEW015CB SCT016 BKN150
       
WBGS 292000Z 16004KT 9999 -RA SCT016 BKN150 25/24 Q1010
TAF WBGS 291700Z 2918/3018 11005KT 9999 FEW018 SCT150 BKN300 
     TEMPO 2918/2922 5000 RA FEW018 BKN150 
     TEMPO 3007/3011 4000 TSRA FEW015CB SCT018 BKN150
       
WBGY 292000Z 04002KT 5000 RA FEW015CB SCT020 OVC160 24/23 Q1011 RETSRA
WBKK 292030Z 12004KT 9999 FEW014 SCT140 BKN270 26/24 Q1008 NOSIG
TAF WBKK 291700Z 2918/3018 12005KT 9999 FEW014
       
WBKL 292000Z 25001KT 9999 FEW012 SCT140 BKN290 26/26 Q1009
TAF WBKL 291700Z 2918/3018 17005KT 9999 FEW015 
     TEMPO 2920/2924 4000 RA FEW014 FEW016CB SCT040
       
WBKS 292000Z 23003KT 9999 FEW015 BKN290 26/25 Q1009
TAF WBKS 291700Z 2918/3018 25005KT 9999 FEW015
       
WBKT 292000Z 14004KT 9999 FEW014 SCT140 BKN270 27/26 Q1008
WBKW 292000Z 31003KT 9999 FEW017 BKN140 25/24 Q1009
TAF WBKW 291700Z 2918/3018 35005KT 9999 FEW017
       
WBSB 292030Z 22007KT 9999 FEW005 SCT014 BKN140 26/25 Q1010 NOSIG
TAF WBSB 291640Z 2918/3100 20003KT 9999 FEW014 FEW015CB 
     TEMPO 2921/2923 7000 SHRA 
     BECMG 3003/3005 30010KT SCT016 FEW017CB
       
WMKP 292030Z 06004KT 4000 +TSRA FEW008 FEW017CB SCT023 BKN260 24/23 Q1008 NOSIG
TAF WMKP 291700Z 2918/3018 36005KT 7000 FEW025 SCT140 BKN270 
     TEMPO 2920/3000 4000 TSRA FEW010 FEW017CB SCT023 BKN250
       
TAF WMBT 291700Z 2918/3018 24005KT 9999 FEW017CB SCT140 BKN270 
     TEMPO 2918/2922 4000 FEW010 FEW015CB SCT018
       
WBKS 292000Z 23003KT 9999 FEW015 BKN290 26/25 Q1009
TAF WBKS 291700Z 2918/3018 25005KT 9999 FEW015
       
WBGS 292000Z 16004KT 9999 -RA SCT016 BKN150 25/24 Q1010
TAF WBGS 291700Z 2918/3018 11005KT 9999 FEW018 SCT150 BKN300 
     TEMPO 2918/2922 5000 RA FEW018 BKN150 
     TEMPO 3007/3011 4000 TSRA FEW015CB SCT018 BKN150
       
WMSA 292000Z VRB01KT 8000 -RA FEW026 SCT140 BKN260 26/25 Q1009
TAF WMSA 291700Z 2918/3018 15005KT 9000 FEW017CB SCT140 BKN280 
     TEMPO 3007/3011 4000 TSRA FEW015CB SCT018 BKN150
       
WMKA 292000Z 00000KT 8000 FEW030 BKN270 28/27 Q1007
TAF WMKA 291700Z 2918/3018 27005KT 9000 FEW018 SCT140 BKN280 
     PROB30 
     TEMPO 2919/2923 4000 TSRA FEW015CB SCT018 BKN150
       
WMKI 292000Z 33002KT 8000 FEW005 SCT140 BKN260 26/25 Q1008
TAF WMKI 291700Z 2918/3018 12005KT 9999 FEW017CB SCT140 BKN260 
     PROB30 
     TEMPO 2918/2922 6000 -TSRA FEW017CB SCT020 
     TEMPO 3008/3012 4000 TSRA FEW015CB SCT018 BKN150
       
WMKJ 292000Z VRB01KT 9999 FEW017CB BKN130 25/25 Q1009
TAF WMKJ 291700Z 2918/3018 17005KT 9999 FEW017CB SCT140 BKN280 
     BECMG 2919/2921 4000 BR FEW010 
     BECMG 3000/3002 9000 FEW018 
     PROB30 
     TEMPO 3008/3012 4000 TSRA FEW015CB SCT018 BKN150
       
WMKC 292000Z 19003KT 9999 SCT020 SCT140 OVC220 25/23 Q1008
TAF WMKC 291700Z 2918/3018 19005KT 9999 FEW017CB SCT020 BKN280 
     PROB30 
     TEMPO 2918/2922 5000 TSRA FEW015CB SCT018
       
WMKN 292000Z 18002KT 9999 FEW022 BKN150 25/24 Q1008
TAF WMKN 291700Z 2918/3018 18005KT 9999 FEW018 BKN150 
     PROB30 
     TEMPO 2918/2922 5000 TSRA FEW015CB SCT018
       
WBKW 292000Z 31003KT 9999 FEW017 BKN140 25/24 Q1009
TAF WBKW 291700Z 2918/3018 35005KT 9999 FEW017